sensor_id;sensor_type;location;lat;lon;timestamp;P1;durP1;ratioP1;P2;durP2;ratioP2
9918;SDS011;4998;51.024;13.828;2023-12-20T00:02:18;1.80;;;1.70;;
9918;SDS011;4998;51.024;13.828;2023-12-20T00:04:46;1.77;;;1.67;;
9918;SDS011;4998;51.024;13.828;2023-12-20T00:07:13;1.57;;;1.47;;
9918;SDS011;4998;51.024;13.828;2023-12-20T00:09:41;1.60;;;1.50;;
9918;SDS011;4998;51.024;13.828;2023-12-20T00:12:09;1.53;;;1.47;;
9918;SDS011;4998;51.024;13.828;2023-12-20T00:14:36;1.80;;;1.70;;
9918;SDS011;4998;51.024;13.828;2023-12-20T00:17:04;1.70;;;1.60;;
9918;SDS011;4998;51.024;13.828;2023-12-20T00:19:31;2.20;;;2.00;;
9918;SDS011;4998;51.024;13.828;2023-12-20T00:21:58;1.90;;;1.80;;
9918;SDS011;4998;51.024;13.828;2023-12-20T00:24:25;1.70;;;1.60;;
9918;SDS011;4998;51.024;13.828;2023-12-20T00:26:54;1.53;;;1.53;;
9918;SDS011;4998;51.024;13.828;2023-12-20T00:29:21;1.90;;;1.80;;
9918;SDS011;4998;51.024;13.828;2023-12-20T00:31:48;2.80;;;1.60;;
9918;SDS011;4998;51.024;13.828;2023-12-20T00:34:15;1.83;;;1.73;;
9918;SDS011;4998;51.024;13.828;2023-12-20T00:36:43;1.50;;;1.50;;
9918;SDS011;4998;51.024;13.828;2023-12-20T00:39:10;1.70;;;1.60;;
9918;SDS011;4998;51.024;13.828;2023-12-20T00:41:37;2.57;;;1.73;;
9918;SDS011;4998;51.024;13.828;2023-12-20T00:44:05;1.80;;;1.70;;
9918;SDS011;4998;51.024;13.828;2023-12-20T00:46:33;1.47;;;1.37;;
9918;SDS011;4998;51.024;13.828;2023-12-20T00:49:00;1.67;;;1.57;;
9918;SDS011;4998;51.024;13.828;2023-12-20T00:51:27;1.50;;;1.40;;
9918;SDS011;4998;51.024;13.828;2023-12-20T00:53:54;1.47;;;1.47;;
9918;SDS011;4998;51.024;13.828;2023-12-20T00:56:21;1.50;;;1.40;;
9918;SDS011;4998;51.024;13.828;2023-12-20T00:58:49;1.30;;;1.30;;
9918;SDS011;4998;51.024;13.828;2023-12-20T01:01:17;1.40;;;1.30;;
9918;SDS011;4998;51.024;13.828;2023-12-20T01:03:44;1.60;;;1.50;;
9918;SDS011;4998;51.024;13.828;2023-12-20T01:06:12;1.27;;;1.27;;
9918;SDS011;4998;51.024;13.828;2023-12-20T01:08:39;1.40;;;1.30;;
9918;SDS011;4998;51.024;13.828;2023-12-20T01:11:06;1.30;;;1.20;;
9918;SDS011;4998;51.024;13.828;2023-12-20T01:13:33;1.40;;;1.30;;
9918;SDS011;4998;51.024;13.828;2023-12-20T01:16:01;1.20;;;1.20;;
9918;SDS011;4998;51.024;13.828;2023-12-20T01:18:30;1.20;;;1.20;;
9918;SDS011;4998;51.024;13.828;2023-12-20T01:21:01;1.27;;;1.17;;
9918;SDS011;4998;51.024;13.828;2023-12-20T01:23:28;1.27;;;1.17;;
9918;SDS011;4998;51.024;13.828;2023-12-20T01:25:56;1.40;;;1.30;;
9918;SDS011;4998;51.024;13.828;2023-12-20T01:28:24;1.07;;;1.07;;
9918;SDS011;4998;51.024;13.828;2023-12-20T01:30:52;1.00;;;1.00;;
9918;SDS011;4998;51.024;13.828;2023-12-20T01:33:19;1.20;;;1.20;;
9918;SDS011;4998;51.024;13.828;2023-12-20T01:35:48;1.13;;;1.13;;
9918;SDS011;4998;51.024;13.828;2023-12-20T01:38:15;1.20;;;1.10;;
9918;SDS011;4998;51.024;13.828;2023-12-20T01:40:43;1.10;;;1.00;;
9918;SDS011;4998;51.024;13.828;2023-12-20T01:43:11;1.57;;;1.30;;
9918;SDS011;4998;51.024;13.828;2023-12-20T01:45:38;2.90;;;1.20;;
9918;SDS011;4998;51.024;13.828;2023-12-20T01:48:05;1.40;;;1.30;;
9918;SDS011;4998;51.024;13.828;2023-12-20T01:50:34;1.10;;;1.10;;
9918;SDS011;4998;51.024;13.828;2023-12-20T01:53:05;1.40;;;1.30;;
9918;SDS011;4998;51.024;13.828;2023-12-20T01:55:35;0.93;;;0.93;;
9918;SDS011;4998;51.024;13.828;2023-12-20T01:58:05;1.03;;;1.03;;
9918;SDS011;4998;51.024;13.828;2023-12-20T02:00:33;1.10;;;1.10;;
9918;SDS011;4998;51.024;13.828;2023-12-20T02:03:01;0.90;;;0.90;;
9918;SDS011;4998;51.024;13.828;2023-12-20T02:05:29;0.97;;;0.97;;
9918;SDS011;4998;51.024;13.828;2023-12-20T02:07:56;1.13;;;1.13;;
9918;SDS011;4998;51.024;13.828;2023-12-20T02:10:25;1.10;;;1.10;;
9918;SDS011;4998;51.024;13.828;2023-12-20T02:12:54;0.80;;;0.80;;
9918;SDS011;4998;51.024;13.828;2023-12-20T02:15:21;0.97;;;0.97;;
9918;SDS011;4998;51.024;13.828;2023-12-20T02:17:48;0.80;;;0.80;;
9918;SDS011;4998;51.024;13.828;2023-12-20T02:20:16;0.80;;;0.80;;
9918;SDS011;4998;51.024;13.828;2023-12-20T02:22:45;1.00;;;1.00;;
9918;SDS011;4998;51.024;13.828;2023-12-20T02:25:12;1.07;;;1.07;;
9918;SDS011;4998;51.024;13.828;2023-12-20T02:27:39;0.83;;;0.83;;
9918;SDS011;4998;51.024;13.828;2023-12-20T02:30:07;0.90;;;0.90;;
9918;SDS011;4998;51.024;13.828;2023-12-20T02:32:35;0.80;;;0.80;;
9918;SDS011;4998;51.024;13.828;2023-12-20T02:35:02;0.90;;;0.90;;
9918;SDS011;4998;51.024;13.828;2023-12-20T02:37:30;0.77;;;0.77;;
9918;SDS011;4998;51.024;13.828;2023-12-20T02:39:58;0.87;;;0.87;;
9918;SDS011;4998;51.024;13.828;2023-12-20T02:42:25;0.80;;;0.80;;
9918;SDS011;4998;51.024;13.828;2023-12-20T02:44:52;0.80;;;0.80;;
9918;SDS011;4998;51.024;13.828;2023-12-20T02:47:20;0.80;;;0.80;;
9918;SDS011;4998;51.024;13.828;2023-12-20T02:49:47;1.10;;;1.10;;
9918;SDS011;4998;51.024;13.828;2023-12-20T02:52:14;0.80;;;0.80;;
9918;SDS011;4998;51.024;13.828;2023-12-20T02:54:41;0.80;;;0.80;;
9918;SDS011;4998;51.024;13.828;2023-12-20T02:57:10;0.73;;;0.73;;
9918;SDS011;4998;51.024;13.828;2023-12-20T02:59:37;0.80;;;0.80;;
9918;SDS011;4998;51.024;13.828;2023-12-20T03:02:05;0.90;;;0.90;;
9918;SDS011;4998;51.024;13.828;2023-12-20T03:04:32;0.60;;;0.60;;
9918;SDS011;4998;51.024;13.828;2023-12-20T03:06:59;1.13;;;0.80;;
9918;SDS011;4998;51.024;13.828;2023-12-20T03:09:26;0.80;;;0.80;;
9918;SDS011;4998;51.024;13.828;2023-12-20T03:11:54;0.70;;;0.70;;
9918;SDS011;4998;51.024;13.828;2023-12-20T03:14:22;0.80;;;0.80;;
9918;SDS011;4998;51.024;13.828;2023-12-20T03:16:49;0.80;;;0.80;;
9918;SDS011;4998;51.024;13.828;2023-12-20T03:19:17;0.73;;;0.73;;
9918;SDS011;4998;51.024;13.828;2023-12-20T03:21:45;0.80;;;0.80;;
9918;SDS011;4998;51.024;13.828;2023-12-20T03:24:12;0.70;;;0.70;;
9918;SDS011;4998;51.024;13.828;2023-12-20T03:26:39;0.80;;;0.80;;
9918;SDS011;4998;51.024;13.828;2023-12-20T03:29:07;0.60;;;0.60;;
9918;SDS011;4998;51.024;13.828;2023-12-20T03:31:35;0.70;;;0.70;;
9918;SDS011;4998;51.024;13.828;2023-12-20T03:34:02;0.60;;;0.60;;
9918;SDS011;4998;51.024;13.828;2023-12-20T03:36:29;0.70;;;0.70;;
9918;SDS011;4998;51.024;13.828;2023-12-20T03:38:57;0.70;;;0.70;;
9918;SDS011;4998;51.024;13.828;2023-12-20T03:41:24;0.63;;;0.63;;
9918;SDS011;4998;51.024;13.828;2023-12-20T03:43:51;0.70;;;0.70;;
9918;SDS011;4998;51.024;13.828;2023-12-20T03:46:18;0.80;;;0.80;;
9918;SDS011;4998;51.024;13.828;2023-12-20T03:48:47;0.70;;;0.70;;
9918;SDS011;4998;51.024;13.828;2023-12-20T03:51:14;0.60;;;0.60;;
9918;SDS011;4998;51.024;13.828;2023-12-20T03:53:41;0.70;;;0.70;;
9918;SDS011;4998;51.024;13.828;2023-12-20T03:56:08;0.60;;;0.60;;
9918;SDS011;4998;51.024;13.828;2023-12-20T03:58:35;0.70;;;0.70;;
9918;SDS011;4998;51.024;13.828;2023-12-20T04:01:02;0.60;;;0.60;;
9918;SDS011;4998;51.024;13.828;2023-12-20T04:03:35;0.93;;;0.70;;
9918;SDS011;4998;51.024;13.828;2023-12-20T04:06:04;0.80;;;0.80;;
9918;SDS011;4998;51.024;13.828;2023-12-20T04:08:31;0.70;;;0.70;;
9918;SDS011;4998;51.024;13.828;2023-12-20T04:10:58;0.73;;;0.73;;
9918;SDS011;4998;51.024;13.828;2023-12-20T04:13:25;0.60;;;0.60;;
9918;SDS011;4998;51.024;13.828;2023-12-20T04:15:52;0.73;;;0.73;;
9918;SDS011;4998;51.024;13.828;2023-12-20T04:18:20;0.70;;;0.70;;
9918;SDS011;4998;51.024;13.828;2023-12-20T04:20:47;0.60;;;0.60;;
9918;SDS011;4998;51.024;13.828;2023-12-20T04:23:16;0.70;;;0.70;;
9918;SDS011;4998;51.024;13.828;2023-12-20T04:25:43;0.70;;;0.70;;
9918;SDS011;4998;51.024;13.828;2023-12-20T04:28:10;0.60;;;0.60;;
9918;SDS011;4998;51.024;13.828;2023-12-20T04:30:37;0.60;;;0.60;;
9918;SDS011;4998;51.024;13.828;2023-12-20T04:33:05;0.67;;;0.67;;
9918;SDS011;4998;51.024;13.828;2023-12-20T04:35:32;0.60;;;0.60;;
9918;SDS011;4998;51.024;13.828;2023-12-20T04:37:59;0.77;;;0.77;;
9918;SDS011;4998;51.024;13.828;2023-12-20T04:40:27;0.53;;;0.53;;
9918;SDS011;4998;51.024;13.828;2023-12-20T04:42:55;0.60;;;0.60;;
9918;SDS011;4998;51.024;13.828;2023-12-20T04:45:22;0.80;;;0.80;;
9918;SDS011;4998;51.024;13.828;2023-12-20T04:47:50;0.70;;;0.70;;
9918;SDS011;4998;51.024;13.828;2023-12-20T04:50:18;0.67;;;0.67;;
9918;SDS011;4998;51.024;13.828;2023-12-20T04:52:45;0.70;;;0.70;;
9918;SDS011;4998;51.024;13.828;2023-12-20T04:55:12;0.77;;;0.77;;
9918;SDS011;4998;51.024;13.828;2023-12-20T04:57:40;0.57;;;0.57;;
9918;SDS011;4998;51.024;13.828;2023-12-20T05:00:08;0.70;;;0.70;;
9918;SDS011;4998;51.024;13.828;2023-12-20T05:02:36;0.57;;;0.57;;
9918;SDS011;4998;51.024;13.828;2023-12-20T05:05:06;0.70;;;0.70;;
9918;SDS011;4998;51.024;13.828;2023-12-20T05:07:34;0.80;;;0.80;;
9918;SDS011;4998;51.024;13.828;2023-12-20T05:10:01;1.40;;;0.70;;
9918;SDS011;4998;51.024;13.828;2023-12-20T05:12:29;0.60;;;0.60;;
9918;SDS011;4998;51.024;13.828;2023-12-20T05:14:58;0.70;;;0.70;;
9918;SDS011;4998;51.024;13.828;2023-12-20T05:17:25;0.67;;;0.67;;
9918;SDS011;4998;51.024;13.828;2023-12-20T05:19:52;0.60;;;0.60;;
9918;SDS011;4998;51.024;13.828;2023-12-20T05:22:19;0.70;;;0.70;;
9918;SDS011;4998;51.024;13.828;2023-12-20T05:24:47;0.60;;;0.60;;
9918;SDS011;4998;51.024;13.828;2023-12-20T05:27:14;0.70;;;0.70;;
9918;SDS011;4998;51.024;13.828;2023-12-20T05:29:41;0.60;;;0.60;;
9918;SDS011;4998;51.024;13.828;2023-12-20T05:32:10;0.60;;;0.60;;
9918;SDS011;4998;51.024;13.828;2023-12-20T05:34:37;0.70;;;0.70;;
9918;SDS011;4998;51.024;13.828;2023-12-20T05:37:04;0.70;;;0.70;;
9918;SDS011;4998;51.024;13.828;2023-12-20T05:39:31;0.63;;;0.63;;
9918;SDS011;4998;51.024;13.828;2023-12-20T05:41:59;0.53;;;0.53;;
9918;SDS011;4998;51.024;13.828;2023-12-20T05:44:26;0.63;;;0.63;;
9918;SDS011;4998;51.024;13.828;2023-12-20T05:46:53;0.70;;;0.70;;
9918;SDS011;4998;51.024;13.828;2023-12-20T05:49:22;1.13;;;0.70;;
9918;SDS011;4998;51.024;13.828;2023-12-20T05:51:49;0.60;;;0.60;;
9918;SDS011;4998;51.024;13.828;2023-12-20T05:54:17;0.60;;;0.60;;
9918;SDS011;4998;51.024;13.828;2023-12-20T05:56:44;0.50;;;0.50;;
9918;SDS011;4998;51.024;13.828;2023-12-20T05:59:11;0.60;;;0.60;;
9918;SDS011;4998;51.024;13.828;2023-12-20T06:01:39;0.50;;;0.50;;
9918;SDS011;4998;51.024;13.828;2023-12-20T06:04:06;0.57;;;0.57;;
9918;SDS011;4998;51.024;13.828;2023-12-20T06:06:35;1.17;;;0.60;;
9918;SDS011;4998;51.024;13.828;2023-12-20T06:09:07;1.33;;;0.60;;
9918;SDS011;4998;51.024;13.828;2023-12-20T06:11:34;0.80;;;0.80;;
9918;SDS011;4998;51.024;13.828;2023-12-20T06:14:01;0.67;;;0.67;;
9918;SDS011;4998;51.024;13.828;2023-12-20T06:16:28;0.70;;;0.70;;
9918;SDS011;4998;51.024;13.828;2023-12-20T06:18:55;0.80;;;0.80;;
9918;SDS011;4998;51.024;13.828;2023-12-20T06:21:23;0.70;;;0.70;;
9918;SDS011;4998;51.024;13.828;2023-12-20T06:23:51;0.73;;;0.73;;
9918;SDS011;4998;51.024;13.828;2023-12-20T06:26:18;0.70;;;0.70;;
9918;SDS011;4998;51.024;13.828;2023-12-20T06:28:45;0.80;;;0.80;;
9918;SDS011;4998;51.024;13.828;2023-12-20T06:31:13;0.60;;;0.60;;
9918;SDS011;4998;51.024;13.828;2023-12-20T06:33:40;0.67;;;0.67;;
9918;SDS011;4998;51.024;13.828;2023-12-20T06:36:10;0.60;;;0.60;;
9918;SDS011;4998;51.024;13.828;2023-12-20T06:38:38;1.60;;;0.70;;
9918;SDS011;4998;51.024;13.828;2023-12-20T06:41:08;0.80;;;0.80;;
9918;SDS011;4998;51.024;13.828;2023-12-20T06:43:39;0.80;;;0.80;;
9918;SDS011;4998;51.024;13.828;2023-12-20T06:46:06;1.50;;;1.40;;
9918;SDS011;4998;51.024;13.828;2023-12-20T06:48:34;1.27;;;1.17;;
9918;SDS011;4998;51.024;13.828;2023-12-20T06:51:01;0.90;;;0.90;;
9918;SDS011;4998;51.024;13.828;2023-12-20T06:53:29;0.90;;;0.90;;
9918;SDS011;4998;51.024;13.828;2023-12-20T06:55:56;0.80;;;0.80;;
9918;SDS011;4998;51.024;13.828;2023-12-20T06:58:25;1.00;;;1.00;;
9918;SDS011;4998;51.024;13.828;2023-12-20T07:00:52;1.20;;;1.10;;
9918;SDS011;4998;51.024;13.828;2023-12-20T07:03:19;1.17;;;1.17;;
9918;SDS011;4998;51.024;13.828;2023-12-20T07:05:46;0.90;;;0.90;;
9918;SDS011;4998;51.024;13.828;2023-12-20T07:08:13;1.00;;;1.00;;
9918;SDS011;4998;51.024;13.828;2023-12-20T07:10:41;0.80;;;0.73;;
9918;SDS011;4998;51.024;13.828;2023-12-20T07:13:09;0.90;;;0.90;;
9918;SDS011;4998;51.024;13.828;2023-12-20T07:15:39;1.23;;;0.80;;
9918;SDS011;4998;51.024;13.828;2023-12-20T07:18:06;1.20;;;1.20;;
9918;SDS011;4998;51.024;13.828;2023-12-20T07:20:33;1.10;;;1.00;;
9918;SDS011;4998;51.024;13.828;2023-12-20T07:23:00;1.10;;;1.10;;
9918;SDS011;4998;51.024;13.828;2023-12-20T07:25:28;0.90;;;0.90;;
9918;SDS011;4998;51.024;13.828;2023-12-20T07:27:57;1.00;;;1.00;;
9918;SDS011;4998;51.024;13.828;2023-12-20T07:30:24;1.10;;;1.00;;
9918;SDS011;4998;51.024;13.828;2023-12-20T07:32:53;0.97;;;0.97;;
9918;SDS011;4998;51.024;13.828;2023-12-20T07:35:23;1.30;;;1.20;;
9918;SDS011;4998;51.024;13.828;2023-12-20T07:37:50;1.50;;;1.40;;
9918;SDS011;4998;51.024;13.828;2023-12-20T07:40:17;1.30;;;1.27;;
9918;SDS011;4998;51.024;13.828;2023-12-20T07:42:44;1.00;;;1.00;;
9918;SDS011;4998;51.024;13.828;2023-12-20T07:45:11;0.97;;;0.97;;
9918;SDS011;4998;51.024;13.828;2023-12-20T07:47:39;1.20;;;1.20;;
9918;SDS011;4998;51.024;13.828;2023-12-20T07:50:07;1.47;;;1.37;;
9918;SDS011;4998;51.024;13.828;2023-12-20T07:52:35;1.40;;;1.20;;
9918;SDS011;4998;51.024;13.828;2023-12-20T07:55:02;1.50;;;1.40;;
9918;SDS011;4998;51.024;13.828;2023-12-20T07:57:30;1.40;;;1.30;;
9918;SDS011;4998;51.024;13.828;2023-12-20T07:59:57;1.50;;;1.40;;
9918;SDS011;4998;51.024;13.828;2023-12-20T08:02:24;2.17;;;1.30;;
9918;SDS011;4998;51.024;13.828;2023-12-20T08:04:52;1.43;;;1.40;;
9918;SDS011;4998;51.024;13.828;2023-12-20T08:07:20;1.57;;;1.50;;
9918;SDS011;4998;51.024;13.828;2023-12-20T08:09:48;1.70;;;1.60;;
9918;SDS011;4998;51.024;13.828;2023-12-20T08:12:16;1.60;;;1.50;;
9918;SDS011;4998;51.024;13.828;2023-12-20T08:14:43;1.70;;;1.60;;
9918;SDS011;4998;51.024;13.828;2023-12-20T08:17:11;1.73;;;1.63;;
9918;SDS011;4998;51.024;13.828;2023-12-20T08:19:41;1.50;;;1.40;;
9918;SDS011;4998;51.024;13.828;2023-12-20T08:22:09;1.60;;;1.50;;
9918;SDS011;4998;51.024;13.828;2023-12-20T08:24:38;1.50;;;1.43;;
9918;SDS011;4998;51.024;13.828;2023-12-20T08:27:05;1.57;;;1.43;;
9918;SDS011;4998;51.024;13.828;2023-12-20T08:29:32;1.70;;;1.60;;
9918;SDS011;4998;51.024;13.828;2023-12-20T08:32:00;1.60;;;1.50;;
9918;SDS011;4998;51.024;13.828;2023-12-20T08:34:28;1.63;;;1.53;;
9918;SDS011;4998;51.024;13.828;2023-12-20T08:36:55;2.40;;;1.50;;
9918;SDS011;4998;51.024;13.828;2023-12-20T08:39:23;1.50;;;1.40;;
9918;SDS011;4998;51.024;13.828;2023-12-20T08:41:52;2.70;;;1.50;;
9918;SDS011;4998;51.024;13.828;2023-12-20T08:44:19;1.40;;;1.30;;
9918;SDS011;4998;51.024;13.828;2023-12-20T08:46:47;1.37;;;1.30;;
9918;SDS011;4998;51.024;13.828;2023-12-20T08:49:15;2.30;;;1.70;;
9918;SDS011;4998;51.024;13.828;2023-12-20T08:51:42;1.50;;;1.40;;
9918;SDS011;4998;51.024;13.828;2023-12-20T08:54:09;2.10;;;1.60;;
9918;SDS011;4998;51.024;13.828;2023-12-20T08:56:38;1.90;;;1.43;;
9918;SDS011;4998;51.024;13.828;2023-12-20T08:59:07;1.43;;;1.33;;
9918;SDS011;4998;51.024;13.828;2023-12-20T09:01:34;2.50;;;1.43;;
9918;SDS011;4998;51.024;13.828;2023-12-20T09:04:01;4.90;;;1.60;;
9918;SDS011;4998;51.024;13.828;2023-12-20T09:06:29;1.80;;;1.30;;
9918;SDS011;4998;51.024;13.828;2023-12-20T09:08:56;2.13;;;1.53;;
9918;SDS011;4998;51.024;13.828;2023-12-20T09:11:23;1.27;;;1.00;;
9918;SDS011;4998;51.024;13.828;2023-12-20T09:13:50;2.00;;;1.30;;
9918;SDS011;4998;51.024;13.828;2023-12-20T09:16:19;1.77;;;1.13;;
9918;SDS011;4998;51.024;13.828;2023-12-20T09:18:46;1.70;;;1.23;;
9918;SDS011;4998;51.024;13.828;2023-12-20T09:21:13;2.20;;;1.40;;
9918;SDS011;4998;51.024;13.828;2023-12-20T09:23:41;1.90;;;1.30;;
9918;SDS011;4998;51.024;13.828;2023-12-20T09:26:08;2.17;;;1.00;;
9918;SDS011;4998;51.024;13.828;2023-12-20T09:28:35;1.10;;;1.00;;
9918;SDS011;4998;51.024;13.828;2023-12-20T09:31:03;1.53;;;1.20;;
9918;SDS011;4998;51.024;13.828;2023-12-20T09:33:33;1.47;;;1.20;;
9918;SDS011;4998;51.024;13.828;2023-12-20T09:36:00;1.87;;;1.30;;
9918;SDS011;4998;51.024;13.828;2023-12-20T09:38:27;3.13;;;1.20;;
9918;SDS011;4998;51.024;13.828;2023-12-20T09:40:55;1.60;;;1.17;;
9918;SDS011;4998;51.024;13.828;2023-12-20T09:43:23;1.47;;;1.20;;
9918;SDS011;4998;51.024;13.828;2023-12-20T09:45:53;2.83;;;0.97;;
9918;SDS011;4998;51.024;13.828;2023-12-20T09:48:27;1.40;;;1.20;;
9918;SDS011;4998;51.024;13.828;2023-12-20T09:50:56;4.20;;;1.27;;
9918;SDS011;4998;51.024;13.828;2023-12-20T09:53:23;2.13;;;1.20;;
9918;SDS011;4998;51.024;13.828;2023-12-20T09:55:55;3.77;;;1.30;;
9918;SDS011;4998;51.024;13.828;2023-12-20T09:58:25;1.40;;;1.30;;
9918;SDS011;4998;51.024;13.828;2023-12-20T10:00:52;1.27;;;1.10;;
9918;SDS011;4998;51.024;13.828;2023-12-20T10:03:22;2.73;;;1.20;;
9918;SDS011;4998;51.024;13.828;2023-12-20T10:05:52;1.00;;;1.00;;
9918;SDS011;4998;51.024;13.828;2023-12-20T10:08:24;1.30;;;1.20;;
9918;SDS011;4998;51.024;13.828;2023-12-20T10:10:51;2.40;;;1.53;;
9918;SDS011;4998;51.024;13.828;2023-12-20T10:13:19;1.73;;;1.20;;
9918;SDS011;4998;51.024;13.828;2023-12-20T10:15:46;1.20;;;1.10;;
9918;SDS011;4998;51.024;13.828;2023-12-20T10:18:13;2.87;;;1.30;;
9918;SDS011;4998;51.024;13.828;2023-12-20T10:20:41;2.67;;;1.30;;
9918;SDS011;4998;51.024;13.828;2023-12-20T10:23:13;3.77;;;1.20;;
9918;SDS011;4998;51.024;13.828;2023-12-20T10:25:43;3.00;;;1.50;;
9918;SDS011;4998;51.024;13.828;2023-12-20T10:28:16;1.73;;;1.20;;
9918;SDS011;4998;51.024;13.828;2023-12-20T10:30:45;3.33;;;1.30;;
9918;SDS011;4998;51.024;13.828;2023-12-20T10:33:15;2.00;;;1.00;;
9918;SDS011;4998;51.024;13.828;2023-12-20T10:35:51;1.70;;;1.60;;
9918;SDS011;4998;51.024;13.828;2023-12-20T10:38:20;2.33;;;1.33;;
9918;SDS011;4998;51.024;13.828;2023-12-20T10:40:48;2.10;;;1.40;;
9918;SDS011;4998;51.024;13.828;2023-12-20T10:43:19;1.90;;;1.23;;
9918;SDS011;4998;51.024;13.828;2023-12-20T10:45:48;5.13;;;2.07;;
9918;SDS011;4998;51.024;13.828;2023-12-20T10:48:17;5.07;;;1.43;;
9918;SDS011;4998;51.024;13.828;2023-12-20T10:50:46;2.73;;;1.60;;
9918;SDS011;4998;51.024;13.828;2023-12-20T10:53:14;3.70;;;2.03;;
9918;SDS011;4998;51.024;13.828;2023-12-20T10:55:44;1.57;;;1.40;;
9918;SDS011;4998;51.024;13.828;2023-12-20T10:58:12;2.20;;;1.70;;
9918;SDS011;4998;51.024;13.828;2023-12-20T11:00:40;2.40;;;1.27;;
9918;SDS011;4998;51.024;13.828;2023-12-20T11:03:12;1.40;;;1.27;;
9918;SDS011;4998;51.024;13.828;2023-12-20T11:05:42;1.80;;;1.63;;
9918;SDS011;4998;51.024;13.828;2023-12-20T11:08:19;1.30;;;1.20;;
9918;SDS011;4998;51.024;13.828;2023-12-20T11:10:55;3.43;;;1.70;;
9918;SDS011;4998;51.024;13.828;2023-12-20T11:13:30;2.77;;;1.40;;
9918;SDS011;4998;51.024;13.828;2023-12-20T11:16:02;4.77;;;1.77;;
9918;SDS011;4998;51.024;13.828;2023-12-20T11:18:29;2.17;;;1.23;;
9918;SDS011;4998;51.024;13.828;2023-12-20T11:21:00;2.93;;;1.50;;
9918;SDS011;4998;51.024;13.828;2023-12-20T11:23:29;2.27;;;1.20;;
9918;SDS011;4998;51.024;13.828;2023-12-20T11:25:59;1.33;;;1.10;;
9918;SDS011;4998;51.024;13.828;2023-12-20T11:28:28;3.00;;;1.50;;
9918;SDS011;4998;51.024;13.828;2023-12-20T11:30:56;2.40;;;1.57;;
9918;SDS011;4998;51.024;13.828;2023-12-20T11:33:25;4.40;;;1.30;;
9918;SDS011;4998;51.024;13.828;2023-12-20T11:35:55;2.43;;;1.40;;
9918;SDS011;4998;51.024;13.828;2023-12-20T11:38:23;2.37;;;1.37;;
9918;SDS011;4998;51.024;13.828;2023-12-20T11:40:51;1.70;;;1.60;;
9918;SDS011;4998;51.024;13.828;2023-12-20T11:43:31;2.13;;;1.30;;
9918;SDS011;4998;51.024;13.828;2023-12-20T11:46:04;2.13;;;1.73;;
9918;SDS011;4998;51.024;13.828;2023-12-20T11:48:32;3.70;;;1.70;;
9918;SDS011;4998;51.024;13.828;2023-12-20T11:51:01;2.97;;;1.70;;
9918;SDS011;4998;51.024;13.828;2023-12-20T11:53:29;3.53;;;1.80;;
9918;SDS011;4998;51.024;13.828;2023-12-20T11:55:57;4.43;;;1.47;;
9918;SDS011;4998;51.024;13.828;2023-12-20T11:58:25;1.60;;;1.50;;
9918;SDS011;4998;51.024;13.828;2023-12-20T12:00:54;2.30;;;1.17;;
9918;SDS011;4998;51.024;13.828;2023-12-20T12:03:22;1.20;;;1.10;;
9918;SDS011;4998;51.024;13.828;2023-12-20T12:05:50;2.30;;;1.30;;
9918;SDS011;4998;51.024;13.828;2023-12-20T12:08:17;2.83;;;1.40;;
9918;SDS011;4998;51.024;13.828;2023-12-20T12:10:44;2.17;;;1.23;;
9918;SDS011;4998;51.024;13.828;2023-12-20T12:13:12;1.93;;;1.30;;
9918;SDS011;4998;51.024;13.828;2023-12-20T12:15:40;4.00;;;1.40;;
9918;SDS011;4998;51.024;13.828;2023-12-20T12:18:11;1.70;;;1.30;;
9918;SDS011;4998;51.024;13.828;2023-12-20T12:20:42;3.90;;;1.63;;
9918;SDS011;4998;51.024;13.828;2023-12-20T12:23:09;2.60;;;1.47;;
9918;SDS011;4998;51.024;13.828;2023-12-20T12:25:36;1.60;;;1.30;;
9918;SDS011;4998;51.024;13.828;2023-12-20T12:28:04;2.13;;;1.50;;
9918;SDS011;4998;51.024;13.828;2023-12-20T12:30:32;2.13;;;1.43;;
9918;SDS011;4998;51.024;13.828;2023-12-20T12:32:59;3.27;;;1.80;;
9918;SDS011;4998;51.024;13.828;2023-12-20T12:35:28;3.03;;;1.43;;
9918;SDS011;4998;51.024;13.828;2023-12-20T12:37:55;2.33;;;1.60;;
9918;SDS011;4998;51.024;13.828;2023-12-20T12:40:25;5.33;;;1.40;;
9918;SDS011;4998;51.024;13.828;2023-12-20T12:42:52;3.70;;;1.57;;
9918;SDS011;4998;51.024;13.828;2023-12-20T12:45:19;1.40;;;1.30;;
9918;SDS011;4998;51.024;13.828;2023-12-20T12:47:47;3.40;;;1.60;;
9918;SDS011;4998;51.024;13.828;2023-12-20T12:50:15;1.77;;;1.23;;
9918;SDS011;4998;51.024;13.828;2023-12-20T12:52:44;1.50;;;1.30;;
9918;SDS011;4998;51.024;13.828;2023-12-20T12:55:12;2.53;;;1.23;;
9918;SDS011;4998;51.024;13.828;2023-12-20T12:57:39;2.20;;;1.50;;
9918;SDS011;4998;51.024;13.828;2023-12-20T13:00:07;2.87;;;1.30;;
9918;SDS011;4998;51.024;13.828;2023-12-20T13:02:36;2.60;;;1.40;;
9918;SDS011;4998;51.024;13.828;2023-12-20T13:05:07;2.70;;;1.20;;
9918;SDS011;4998;51.024;13.828;2023-12-20T13:07:34;2.53;;;1.60;;
9918;SDS011;4998;51.024;13.828;2023-12-20T13:10:04;2.90;;;1.70;;
9918;SDS011;4998;51.024;13.828;2023-12-20T13:12:32;4.17;;;1.63;;
9918;SDS011;4998;51.024;13.828;2023-12-20T13:14:59;2.30;;;1.27;;
9918;SDS011;4998;51.024;13.828;2023-12-20T13:17:29;1.20;;;1.10;;
9918;SDS011;4998;51.024;13.828;2023-12-20T13:19:56;2.93;;;1.60;;
9918;SDS011;4998;51.024;13.828;2023-12-20T13:22:24;1.73;;;1.40;;
9918;SDS011;4998;51.024;13.828;2023-12-20T13:24:52;1.60;;;1.40;;
9918;SDS011;4998;51.024;13.828;2023-12-20T13:27:21;3.60;;;1.30;;
9918;SDS011;4998;51.024;13.828;2023-12-20T13:29:48;2.07;;;1.50;;
9918;SDS011;4998;51.024;13.828;2023-12-20T13:32:15;2.77;;;1.40;;
9918;SDS011;4998;51.024;13.828;2023-12-20T13:34:44;1.30;;;1.20;;
9918;SDS011;4998;51.024;13.828;2023-12-20T13:37:12;2.67;;;1.27;;
9918;SDS011;4998;51.024;13.828;2023-12-20T13:39:39;3.07;;;1.40;;
9918;SDS011;4998;51.024;13.828;2023-12-20T13:42:07;3.07;;;1.60;;
9918;SDS011;4998;51.024;13.828;2023-12-20T13:44:35;2.00;;;1.60;;
9918;SDS011;4998;51.024;13.828;2023-12-20T13:47:03;2.27;;;1.40;;
9918;SDS011;4998;51.024;13.828;2023-12-20T13:49:31;2.07;;;1.87;;
9918;SDS011;4998;51.024;13.828;2023-12-20T13:51:58;2.30;;;1.63;;
9918;SDS011;4998;51.024;13.828;2023-12-20T13:54:26;1.80;;;1.30;;
9918;SDS011;4998;51.024;13.828;2023-12-20T13:56:53;3.73;;;1.50;;
9918;SDS011;4998;51.024;13.828;2023-12-20T13:59:19;2.20;;;1.13;;
9918;SDS011;4998;51.024;13.828;2023-12-20T14:01:47;3.10;;;1.47;;
9918;SDS011;4998;51.024;13.828;2023-12-20T14:04:15;1.90;;;1.30;;
9918;SDS011;4998;51.024;13.828;2023-12-20T14:06:42;2.47;;;1.27;;
9918;SDS011;4998;51.024;13.828;2023-12-20T14:09:10;2.50;;;1.30;;
9918;SDS011;4998;51.024;13.828;2023-12-20T14:11:37;1.50;;;1.30;;
9918;SDS011;4998;51.024;13.828;2023-12-20T14:14:06;1.30;;;1.10;;
9918;SDS011;4998;51.024;13.828;2023-12-20T14:16:34;3.20;;;1.30;;
9918;SDS011;4998;51.024;13.828;2023-12-20T14:19:04;3.07;;;1.50;;
9918;SDS011;4998;51.024;13.828;2023-12-20T14:21:32;2.37;;;1.30;;
9918;SDS011;4998;51.024;13.828;2023-12-20T14:24:00;2.63;;;1.40;;
9918;SDS011;4998;51.024;13.828;2023-12-20T14:26:29;1.50;;;1.10;;
9918;SDS011;4998;51.024;13.828;2023-12-20T14:28:57;2.20;;;1.27;;
9918;SDS011;4998;51.024;13.828;2023-12-20T14:31:24;1.73;;;1.30;;
9918;SDS011;4998;51.024;13.828;2023-12-20T14:33:51;2.63;;;1.43;;
9918;SDS011;4998;51.024;13.828;2023-12-20T14:36:21;1.47;;;1.33;;
9918;SDS011;4998;51.024;13.828;2023-12-20T14:38:48;1.43;;;1.33;;
9918;SDS011;4998;51.024;13.828;2023-12-20T14:41:16;2.77;;;1.37;;
9918;SDS011;4998;51.024;13.828;2023-12-20T14:43:44;1.43;;;1.23;;
9918;SDS011;4998;51.024;13.828;2023-12-20T14:46:12;1.33;;;1.20;;
9918;SDS011;4998;51.024;13.828;2023-12-20T14:48:40;1.33;;;1.20;;
9918;SDS011;4998;51.024;13.828;2023-12-20T14:51:07;2.30;;;1.20;;
9918;SDS011;4998;51.024;13.828;2023-12-20T14:53:37;2.37;;;1.33;;
9918;SDS011;4998;51.024;13.828;2023-12-20T14:56:04;2.63;;;1.40;;
9918;SDS011;4998;51.024;13.828;2023-12-20T14:58:32;1.70;;;1.27;;
9918;SDS011;4998;51.024;13.828;2023-12-20T15:01:00;3.10;;;1.20;;
9918;SDS011;4998;51.024;13.828;2023-12-20T15:03:28;1.80;;;1.30;;
9918;SDS011;4998;51.024;13.828;2023-12-20T15:05:55;1.53;;;1.27;;